Monticello, Florida
Current Conditions -  °F | °C
As of 10:15 AM on Wednesday 26 Nov 2014 (Local Time) from KTVI Reporting Station
Clear Clear  
Wind Chill: 52°   Ceiling: Unl
Heat Index: 52°   Visibility: 10mi
Dew Point: 45°   Wind: 10mph
Humidity: 76%   Direction: 290°WNW
Pressure: 30.17"   Gusts: NA
Location:  30.54°N, 83.87°W
Report Text: KTVI 261515Z AUTO 29009KT 10SM CLR 11/07 A3017 RMK AO2
Loading
Personal Weather Stations






























Interactive Weather Map New forecast layout! Learn more

10-Day Weather Forecast

Advertisements
Track Severe Weather on mobile